Drew Devall — WDB6048 — position and weather

sailwx.info

Track history (hours):
 
Tides and Currents Weather Stations Pressure Air Temp Water Temp Dewpoint Dewpoint Depression Visibility Wind Speed Wind Dir Waves Ship Positions

Drew Devall

Owner: Drew Devall, Sulphur, LA. More information available from US FCC via Universal Licensing System and Coast Guard Vessel Documentation Center.

Last reported at 2018-Jun-10 08:36 UTC. Time now 2018-Jun-18 14:59 UTC.
Position N 29°01' W 095°14'.
Warning: this ship's position is 8 days out of date.

Length 17 m; draft 3 m.

Type: Towing. MMSI: 366916860.

Date/timePositionNaut miles runAvg speedWind from/ knotsBaromVisibWave heightAir tempDewpointWater temp
2018-Jun-10 08:36N 29°01' W 095°14'0 4.4
2018-Jun-10 08:30N 29°02' W 095°14'2 4.4
2018-Jun-10 08:00N 29°04' W 095°13'2 4.4
2018-Jun-10 07:30N 29°06' W 095°12'2 4.3
2018-Jun-10 07:00N 29°08' W 095°11'2 4.7
2018-Jun-10 06:30N 29°09' W 095°09'3 5.2
2018-Jun-10 06:00N 29°11' W 095°06'1 2.0
2018-Jun-10 05:30N 29°11' W 095°05'3 5.3
2018-Jun-10 05:00N 29°12' W 095°03'3 5.1
2018-Jun-10 04:30N 29°15' W 095°01'3 5.3
2018-Jun-10 04:00N 29°17' W 094°59'2 4.8
2018-Jun-10 03:30N 29°17' W 094°56'2 4.6
2018-Jun-10 03:00N 29°17' W 094°54'2 4.9
2018-Jun-10 02:30N 29°19' W 094°52'3 5.4
2018-Jun-10 01:59N 29°21' W 094°49'4 0.1
2018-Jun-08 13:31N 29°23' W 094°53'0 3.6
2018-Jun-08 13:30N 29°23' W 094°53'4 7.1
2018-Jun-08 13:00N 29°22' W 094°49'4 4.1
2018-Jun-08 11:57N 29°19' W 094°52'3 6.2
2018-Jun-08 11:30N 29°17' W 094°55'3 6.7
2018-Jun-08 11:00N 29°16' W 094°59'3 6.4
2018-Jun-08 10:30N 29°14' W 095°01'3 6.3
2018-Jun-08 10:00N 29°12' W 095°04'3 6.4
2018-Jun-08 09:30N 29°10' W 095°07'3 6.3
2018-Jun-08 09:01N 29°08' W 095°10'2 4.2
2018-Jun-08 08:30N 29°07' W 095°12'3 5.9
2018-Jun-08 08:00N 29°04' W 095°13'3 5.8
2018-Jun-08 07:30N 29°01' W 095°14'3 6.1
2018-Jun-08 07:00N 28°59' W 095°16'  
2018-Jun-06 02:04N 29°02' W 095°14'1 7.5
2018-Jun-06 02:00N 29°02' W 095°14'4 7.2
2018-Jun-06 01:30N 29°05' W 095°12'4 7.0
2018-Jun-06 01:01N 29°08' W 095°10'4 7.6
2018-Jun-06 00:30N 29°10' W 095°06'3 6.1
2018-Jun-06 00:00N 29°12' W 095°03'4 7.7
2018-Jun-05 23:30N 29°15' W 095°00'4 7.5
2018-Jun-05 23:00N 29°17' W 094°57'3 6.8
2018-Jun-05 22:30N 29°18' W 094°53'4 7.7
2018-Jun-05 22:00N 29°20' W 094°50'2 4.1
2018-Jun-05 21:26N 29°22' W 094°51'2 0.2
2018-Jun-05 11:12N 29°22' W 094°53'1 2.5
2018-Jun-05 10:57N 29°23' W 094°53'5 2.9
2018-Jun-05 09:12N 29°18' W 094°53'1 6.5
2018-Jun-05 09:00N 29°17' W 094°54'4 7.3
2018-Jun-05 08:30N 29°17' W 094°59'3 6.5
2018-Jun-05 08:00N 29°14' W 095°01'3 6.1
2018-Jun-05 07:30N 29°12' W 095°03'3 5.9
2018-Jun-05 07:00N 29°10' W 095°06'2 4.9
2018-Jun-05 06:30N 29°09' W 095°09'3 5.5
2018-Jun-05 06:00N 29°07' W 095°11'3 5.7
2018-Jun-05 05:30N 29°05' W 095°12'3 5.5
2018-Jun-05 05:00N 29°02' W 095°14'4 5.9
2018-Jun-05 04:22N 28°59' W 095°16'4 1.1
2018-Jun-05 00:27N 28°57' W 095°20'0 0.0
2018-Jun-04 23:54N 28°57' W 095°20'7 0.7
2018-Jun-04 13:33N 29°01' W 095°14'0 4.4
2018-Jun-04 13:30N 29°02' W 095°14'2 4.3
2018-Jun-04 13:00N 29°04' W 095°13'2 4.4
2018-Jun-04 12:30N 29°06' W 095°12'2 4.7
2018-Jun-04 12:00N 29°08' W 095°11'2 4.8
2018-Jun-04 11:30N 29°09' W 095°09'2 4.8
2018-Jun-04 11:00N 29°10' W 095°06'2 4.7
2018-Jun-04 10:30N 29°12' W 095°04'2 4.5
2018-Jun-04 10:00N 29°13' W 095°02'2 4.7
2018-Jun-04 09:30N 29°15' W 095°00'2 4.7
2018-Jun-04 09:00N 29°17' W 094°59'2 4.5
2018-Jun-04 08:30N 29°17' W 094°56'2 4.4
2018-Jun-04 07:59N 29°17' W 094°54'2 4.6
2018-Jun-04 07:30N 29°19' W 094°52'3 4.9
2018-Jun-04 06:59N 29°21' W 094°50'3 5.0
2018-Jun-04 06:28N 29°22' W 094°47'2 3.6
2018-Jun-04 06:00N 29°23' W 094°46'0 0.8
2018-Jun-04 05:30N 29°24' W 094°46'3 4.2
2018-Jun-04 04:53N 29°25' W 094°43'6 2.5
2018-Jun-04 02:29N 29°22' W 094°49'4 0.5
2018-Jun-03 18:31N 29°22' W 094°54'0 0.0
2018-Jun-03 18:29N 29°22' W 094°54'1 2.6
2018-Jun-03 17:54N 29°23' W 094°52'3 7.4
2018-Jun-03 17:30N 29°22' W 094°49'  
2018-Jun-01 04:46N 29°18' W 094°53'1 5.6
2018-Jun-01 04:30N 29°17' W 094°55'3 6.8
2018-Jun-01 04:00N 29°17' W 094°59'3 6.3
2018-Jun-01 03:30N 29°14' W 095°01'3 5.5
2018-Jun-01 03:00N 29°12' W 095°03'3 5.9
2018-Jun-01 02:30N 29°11' W 095°06'3 5.6
2018-Jun-01 02:00N 29°09' W 095°08'3 5.8
2018-Jun-01 01:30N 29°07' W 095°11'3 5.3
2018-Jun-01 01:00N 29°05' W 095°12'3 5.1
2018-Jun-01 00:30N 29°03' W 095°13'3 5.1
2018-Jun-01 00:00N 29°00' W 095°15'  
Track history (hours):
 
Tides and Currents Weather Stations Pressure Air Temp Water Temp Dewpoint Dewpoint Depression Visibility Wind Speed Wind Dir Waves Ship Positions

Drew Devall

Owner: Drew Devall, Sulphur, LA. More information available from US FCC via Universal Licensing System and Coast Guard Vessel Documentation Center.

Last reported at 2018-Jun-10 08:36 UTC. Time now 2018-Jun-18 14:59 UTC.
Position N 29°01' W 095°14'.
Warning: this ship's position is 8 days out of date.

Length 17 m; draft 3 m.

Type: Towing. MMSI: 366916860.

Date/timePositionNaut miles runAvg speedWind from/ knotsBaromVisibWave heightAir tempDewpointWater temp
2018-Jun-10 08:36N 29°01' W 095°14'0 4.4
2018-Jun-10 08:30N 29°02' W 095°14'2 4.4
2018-Jun-10 08:00N 29°04' W 095°13'2 4.4
2018-Jun-10 07:30N 29°06' W 095°12'2 4.3
2018-Jun-10 07:00N 29°08' W 095°11'2 4.7
2018-Jun-10 06:30N 29°09' W 095°09'3 5.2
2018-Jun-10 06:00N 29°11' W 095°06'1 2.0
2018-Jun-10 05:30N 29°11' W 095°05'3 5.3
2018-Jun-10 05:00N 29°12' W 095°03'3 5.1
2018-Jun-10 04:30N 29°15' W 095°01'3 5.3
2018-Jun-10 04:00N 29°17' W 094°59'2 4.8
2018-Jun-10 03:30N 29°17' W 094°56'2 4.6
2018-Jun-10 03:00N 29°17' W 094°54'2 4.9
2018-Jun-10 02:30N 29°19' W 094°52'3 5.4
2018-Jun-10 01:59N 29°21' W 094°49'4 0.1
2018-Jun-08 13:31N 29°23' W 094°53'0 3.6
2018-Jun-08 13:30N 29°23' W 094°53'4 7.1
2018-Jun-08 13:00N 29°22' W 094°49'4 4.1
2018-Jun-08 11:57N 29°19' W 094°52'3 6.2
2018-Jun-08 11:30N 29°17' W 094°55'3 6.7
2018-Jun-08 11:00N 29°16' W 094°59'3 6.4
2018-Jun-08 10:30N 29°14' W 095°01'3 6.3
2018-Jun-08 10:00N 29°12' W 095°04'3 6.4
2018-Jun-08 09:30N 29°10' W 095°07'3 6.3
2018-Jun-08 09:01N 29°08' W 095°10'2 4.2
2018-Jun-08 08:30N 29°07' W 095°12'3 5.9
2018-Jun-08 08:00N 29°04' W 095°13'3 5.8
2018-Jun-08 07:30N 29°01' W 095°14'3 6.1
2018-Jun-08 07:00N 28°59' W 095°16'  
2018-Jun-06 02:04N 29°02' W 095°14'1 7.5
2018-Jun-06 02:00N 29°02' W 095°14'4 7.2
2018-Jun-06 01:30N 29°05' W 095°12'4 7.0
2018-Jun-06 01:01N 29°08' W 095°10'4 7.6
2018-Jun-06 00:30N 29°10' W 095°06'3 6.1
2018-Jun-06 00:00N 29°12' W 095°03'4 7.7
2018-Jun-05 23:30N 29°15' W 095°00'4 7.5
2018-Jun-05 23:00N 29°17' W 094°57'3 6.8
2018-Jun-05 22:30N 29°18' W 094°53'4 7.7
2018-Jun-05 22:00N 29°20' W 094°50'2 4.1
2018-Jun-05 21:26N 29°22' W 094°51'2 0.2
2018-Jun-05 11:12N 29°22' W 094°53'1 2.5
2018-Jun-05 10:57N 29°23' W 094°53'5 2.9
2018-Jun-05 09:12N 29°18' W 094°53'1 6.5
2018-Jun-05 09:00N 29°17' W 094°54'4 7.3
2018-Jun-05 08:30N 29°17' W 094°59'3 6.5
2018-Jun-05 08:00N 29°14' W 095°01'3 6.1
2018-Jun-05 07:30N 29°12' W 095°03'3 5.9
2018-Jun-05 07:00N 29°10' W 095°06'2 4.9
2018-Jun-05 06:30N 29°09' W 095°09'3 5.5
2018-Jun-05 06:00N 29°07' W 095°11'3 5.7
2018-Jun-05 05:30N 29°05' W 095°12'3 5.5
2018-Jun-05 05:00N 29°02' W 095°14'4 5.9
2018-Jun-05 04:22N 28°59' W 095°16'4 1.1
2018-Jun-05 00:27N 28°57' W 095°20'0 0.0
2018-Jun-04 23:54N 28°57' W 095°20'7 0.7
2018-Jun-04 13:33N 29°01' W 095°14'0 4.4
2018-Jun-04 13:30N 29°02' W 095°14'2 4.3
2018-Jun-04 13:00N 29°04' W 095°13'2 4.4
2018-Jun-04 12:30N 29°06' W 095°12'2 4.7
2018-Jun-04 12:00N 29°08' W 095°11'2 4.8
2018-Jun-04 11:30N 29°09' W 095°09'2 4.8
2018-Jun-04 11:00N 29°10' W 095°06'2 4.7
2018-Jun-04 10:30N 29°12' W 095°04'2 4.5
2018-Jun-04 10:00N 29°13' W 095°02'2 4.7
2018-Jun-04 09:30N 29°15' W 095°00'2 4.7
2018-Jun-04 09:00N 29°17' W 094°59'2 4.5
2018-Jun-04 08:30N 29°17' W 094°56'2 4.4
2018-Jun-04 07:59N 29°17' W 094°54'2 4.6
2018-Jun-04 07:30N 29°19' W 094°52'3 4.9
2018-Jun-04 06:59N 29°21' W 094°50'3 5.0
2018-Jun-04 06:28N 29°22' W 094°47'2 3.6
2018-Jun-04 06:00N 29°23' W 094°46'0 0.8
2018-Jun-04 05:30N 29°24' W 094°46'3 4.2
2018-Jun-04 04:53N 29°25' W 094°43'6 2.5
2018-Jun-04 02:29N 29°22' W 094°49'4 0.5
2018-Jun-03 18:31N 29°22' W 094°54'0 0.0
2018-Jun-03 18:29N 29°22' W 094°54'1 2.6
2018-Jun-03 17:54N 29°23' W 094°52'3 7.4
2018-Jun-03 17:30N 29°22' W 094°49'  
2018-Jun-01 04:46N 29°18' W 094°53'1 5.6
2018-Jun-01 04:30N 29°17' W 094°55'3 6.8
2018-Jun-01 04:00N 29°17' W 094°59'3 6.3
2018-Jun-01 03:30N 29°14' W 095°01'3 5.5
2018-Jun-01 03:00N 29°12' W 095°03'3 5.9
2018-Jun-01 02:30N 29°11' W 095°06'3 5.6
2018-Jun-01 02:00N 29°09' W 095°08'3 5.8
2018-Jun-01 01:30N 29°07' W 095°11'3 5.3
2018-Jun-01 01:00N 29°05' W 095°12'3 5.1
2018-Jun-01 00:30N 29°03' W 095°13'3 5.1
2018-Jun-01 00:00N 29°00' W 095°15'  

Dump ship's entire track history